SWA8848 PAJN-PANC
Flight info
| Callsign | SWA8848 |
|---|---|
| Flight time | 1h 24m |
| Altitude | 36000 |
| Route | ASORT3 ASORT YESKA TED |
| Aircraft | B722/M-SDFGHRWY/C |
Departure
| Time | 2026-04-10 14:11 |
|---|---|
| Airport | Juneau International Airport (PAJN) |
Arrival
| Time | 2026-04-10 15:36 |
|---|---|
| Airport | Ted Stevens Anchorage International Airport (PANC) |
| Time | Latitude | Longitude | Altitude | Speed | Heading |
|---|---|---|---|---|---|
| 2026-04-10 13:56 | 58.35877 | -134.58482 | 38 ft | 0 kts | 102° |
| 2026-04-10 14:05 | 58.35878 | -134.58499 | 38 ft | 2 kts | 102° |
| 2026-04-10 14:05 | 58.35882 | -134.58528 | 36 ft | 2 kts | 102° |
| 2026-04-10 14:06 | 58.35885 | -134.58556 | 36 ft | 2 kts | 102° |
| 2026-04-10 14:06 | 58.35888 | -134.58585 | 37 ft | 2 kts | 102° |
| 2026-04-10 14:06 | 58.35891 | -134.58613 | 38 ft | 2 kts | 102° |
| 2026-04-10 14:06 | 58.35893 | -134.58624 | 38 ft | 0 kts | 102° |
| 2026-04-10 14:07 | 58.35892 | -134.58621 | 38 ft | 1 kts | 107° |
| 2026-04-10 14:07 | 58.35844 | -134.58568 | 37 ft | 14 kts | 179° |
| 2026-04-10 14:08 | 58.35755 | -134.58607 | 38 ft | 12 kts | 150° |
| 2026-04-10 14:08 | 58.35720 | -134.58434 | 38 ft | 23 kts | 104° |
| 2026-04-10 14:08 | 58.35674 | -134.58099 | 36 ft | 27 kts | 105° |
| 2026-04-10 14:08 | 58.35624 | -134.57742 | 38 ft | 29 kts | 105° |
| 2026-04-10 14:09 | 58.35571 | -134.57363 | 38 ft | 30 kts | 105° |
| 2026-04-10 14:09 | 58.35518 | -134.56978 | 37 ft | 31 kts | 104° |
| 2026-04-10 14:09 | 58.35462 | -134.56574 | 37 ft | 32 kts | 104° |
| 2026-04-10 14:09 | 58.35404 | -134.56159 | 37 ft | 33 kts | 104° |
| 2026-04-10 14:10 | 58.35345 | -134.55736 | 36 ft | 33 kts | 105° |
| 2026-04-10 14:10 | 58.35293 | -134.55364 | 36 ft | 19 kts | 113° |
| 2026-04-10 14:10 | 58.35200 | -134.55326 | 36 ft | 12 kts | 211° |
| 2026-04-10 14:10 | 58.35198 | -134.55503 | 34 ft | 23 kts | 284° |
| 2026-04-10 14:11 | 58.35301 | -134.56241 | 37 ft | 93 kts | 285° |
| 2026-04-10 14:11 | 58.35513 | -134.57787 | 60 ft | 148 kts | 284° |
| 2026-04-10 14:11 | 58.35801 | -134.59855 | 451 ft | 171 kts | 284° |
| 2026-04-10 14:11 | 58.35965 | -134.62188 | 1074 ft | 189 kts | 264° |
| 2026-04-10 14:12 | 58.35753 | -134.64685 | 1894 ft | 184 kts | 262° |
| 2026-04-10 14:12 | 58.35696 | -134.67070 | 2745 ft | 187 kts | 284° |
| 2026-04-10 14:12 | 58.35908 | -134.69602 | 3280 ft | 202 kts | 279° |
| 2026-04-10 14:12 | 58.35963 | -134.72337 | 3961 ft | 213 kts | 270° |
| 2026-04-10 14:13 | 58.35911 | -134.75330 | 4462 ft | 242 kts | 269° |
| 2026-04-10 14:13 | 58.35835 | -134.78648 | 5371 ft | 259 kts | 269° |
| 2026-04-10 14:13 | 58.35764 | -134.82259 | 6134 ft | 286 kts | 271° |
| 2026-04-10 14:13 | 58.35729 | -134.86104 | 7083 ft | 274 kts | 270° |
| 2026-04-10 14:14 | 58.35697 | -134.89576 | 7731 ft | 272 kts | 272° |
| 2026-04-10 14:14 | 58.35723 | -134.93145 | 8513 ft | 269 kts | 272° |
| 2026-04-10 14:14 | 58.35763 | -134.96760 | 9380 ft | 274 kts | 273° |
| 2026-04-10 14:14 | 58.35952 | -135.00377 | 10285 ft | 277 kts | 279° |
| 2026-04-10 14:15 | 58.36170 | -135.04133 | 10913 ft | 297 kts | 275° |
| 2026-04-10 14:15 | 58.36196 | -135.08215 | 11490 ft | 319 kts | 270° |
| 2026-04-10 14:15 | 58.36128 | -135.12571 | 12086 ft | 335 kts | 270° |
| 2026-04-10 14:15 | 58.36127 | -135.17008 | 12684 ft | 336 kts | 272° |
| 2026-04-10 14:16 | 58.36177 | -135.21450 | 13274 ft | 337 kts | 272° |
| 2026-04-10 14:16 | 58.36198 | -135.25923 | 13855 ft | 339 kts | 271° |
| 2026-04-10 14:16 | 58.36194 | -135.30419 | 14374 ft | 340 kts | 271° |
| 2026-04-10 14:16 | 58.36195 | -135.34932 | 14904 ft | 342 kts | 271° |
| 2026-04-10 14:17 | 58.36208 | -135.39460 | 15436 ft | 342 kts | 271° |
| 2026-04-10 14:17 | 58.36216 | -135.43994 | 15977 ft | 342 kts | 271° |
| 2026-04-10 14:17 | 58.36220 | -135.48534 | 16537 ft | 344 kts | 271° |
| 2026-04-10 14:17 | 58.36231 | -135.53106 | 17103 ft | 345 kts | 271° |
| 2026-04-10 14:18 | 58.36245 | -135.57690 | 17675 ft | 348 kts | 270° |
| 2026-04-10 14:18 | 58.36254 | -135.62314 | 18258 ft | 350 kts | 270° |
| 2026-04-10 14:18 | 58.36259 | -135.66960 | 18801 ft | 351 kts | 270° |
| 2026-04-10 14:18 | 58.36263 | -135.71553 | 19313 ft | 352 kts | 270° |
| 2026-04-10 14:19 | 58.36267 | -135.76224 | 19844 ft | 353 kts | 270° |
| 2026-04-10 14:19 | 58.36402 | -135.80900 | 20369 ft | 356 kts | 279° |
| 2026-04-10 14:19 | 58.37128 | -135.85416 | 20927 ft | 359 kts | 290° |
| 2026-04-10 14:19 | 58.38183 | -135.89756 | 21487 ft | 363 kts | 295° |
| 2026-04-10 14:20 | 58.39419 | -135.93973 | 22052 ft | 366 kts | 296° |
| 2026-04-10 14:20 | 58.40615 | -135.98257 | 22632 ft | 367 kts | 293° |
| 2026-04-10 14:20 | 58.41726 | -136.02661 | 23229 ft | 369 kts | 292° |
| 2026-04-10 14:20 | 58.42847 | -136.07077 | 23817 ft | 371 kts | 295° |
| 2026-04-10 14:21 | 58.44029 | -136.11490 | 24313 ft | 375 kts | 296° |
| 2026-04-10 14:21 | 58.45225 | -136.15950 | 24754 ft | 379 kts | 295° |
| 2026-04-10 14:21 | 58.46402 | -136.20479 | 25195 ft | 382 kts | 295° |
| 2026-04-10 14:21 | 58.47583 | -136.25056 | 25647 ft | 385 kts | 295° |
| 2026-04-10 14:22 | 58.48781 | -136.29645 | 26100 ft | 388 kts | 295° |
| 2026-04-10 14:22 | 58.49991 | -136.34265 | 26562 ft | 390 kts | 295° |
| 2026-04-10 14:22 | 58.51203 | -136.38934 | 27031 ft | 393 kts | 295° |
| 2026-04-10 14:22 | 58.52418 | -136.43639 | 27511 ft | 395 kts | 296° |
| 2026-04-10 14:23 | 58.53640 | -136.48367 | 27994 ft | 398 kts | 296° |
| 2026-04-10 14:23 | 58.54867 | -136.53122 | 28482 ft | 399 kts | 296° |
| 2026-04-10 14:23 | 58.56099 | -136.57901 | 28986 ft | 401 kts | 296° |
| 2026-04-10 14:23 | 58.57328 | -136.62696 | 29503 ft | 402 kts | 298° |
| 2026-04-10 14:24 | 58.58563 | -136.67511 | 30026 ft | 402 kts | 298° |
| 2026-04-10 14:24 | 58.59796 | -136.72325 | 30474 ft | 403 kts | 298° |
| 2026-04-10 14:24 | 58.61026 | -136.77146 | 30909 ft | 402 kts | 298° |
| 2026-04-10 14:24 | 58.62251 | -136.81960 | 31336 ft | 402 kts | 298° |
| 2026-04-10 14:25 | 58.63473 | -136.86769 | 31772 ft | 401 kts | 298° |
| 2026-04-10 14:25 | 58.64692 | -136.91575 | 32220 ft | 399 kts | 298° |
| 2026-04-10 14:25 | 58.65901 | -136.96354 | 32676 ft | 397 kts | 298° |
| 2026-04-10 14:25 | 58.67106 | -137.01125 | 33144 ft | 395 kts | 298° |
| 2026-04-10 14:26 | 58.68299 | -137.05853 | 33587 ft | 393 kts | 298° |
| 2026-04-10 14:26 | 58.69487 | -137.10582 | 34003 ft | 392 kts | 298° |
| 2026-04-10 14:26 | 58.70653 | -137.15239 | 34365 ft | 391 kts | 298° |
| 2026-04-10 14:26 | 58.71839 | -137.19991 | 34715 ft | 388 kts | 300° |
| 2026-04-10 14:27 | 58.73008 | -137.24663 | 35078 ft | 386 kts | 299° |
| 2026-04-10 14:27 | 58.74153 | -137.29242 | 35441 ft | 384 kts | 299° |
| 2026-04-10 14:27 | 58.75302 | -137.33865 | 35805 ft | 382 kts | 299° |
| 2026-04-10 14:27 | 58.76441 | -137.38466 | 36174 ft | 378 kts | 299° |
| 2026-04-10 14:28 | 58.77564 | -137.43013 | 36557 ft | 374 kts | 299° |
| 2026-04-10 14:28 | 58.78677 | -137.47502 | 36928 ft | 369 kts | 299° |
| 2026-04-10 14:28 | 58.79774 | -137.51940 | 37276 ft | 364 kts | 300° |
| 2026-04-10 14:28 | 58.80849 | -137.56323 | 37663 ft | 358 kts | 299° |
| 2026-04-10 14:29 | 58.81910 | -137.60643 | 37981 ft | 356 kts | 299° |
| 2026-04-10 14:29 | 58.83702 | -137.67924 | 37966 ft | 366 kts | 299° |
| 2026-04-10 14:30 | 58.85897 | -137.76928 | 37984 ft | 376 kts | 298° |
| 2026-04-10 14:30 | 58.88152 | -137.86203 | 37988 ft | 387 kts | 298° |
| 2026-04-10 14:31 | 58.90469 | -137.95771 | 37983 ft | 398 kts | 298° |
| 2026-04-10 14:31 | 58.92844 | -138.05626 | 37980 ft | 410 kts | 298° |
| 2026-04-10 14:32 | 58.95278 | -138.15772 | 37968 ft | 421 kts | 298° |
| 2026-04-10 14:32 | 58.97763 | -138.26183 | 37978 ft | 431 kts | 298° |
| 2026-04-10 14:33 | 59.00300 | -138.36863 | 37983 ft | 441 kts | 298° |
| 2026-04-10 14:33 | 59.02891 | -138.47821 | 37987 ft | 451 kts | 298° |
| 2026-04-10 14:34 | 59.05523 | -138.59012 | 37977 ft | 460 kts | 298° |
| 2026-04-10 14:34 | 59.08185 | -138.70394 | 37981 ft | 463 kts | 298° |
| 2026-04-10 14:35 | 59.10843 | -138.81813 | 37983 ft | 463 kts | 298° |
| 2026-04-10 14:35 | 59.13481 | -138.93223 | 37968 ft | 460 kts | 298° |
| 2026-04-10 14:36 | 59.16100 | -139.04580 | 37973 ft | 460 kts | 298° |
| 2026-04-10 14:36 | 59.18693 | -139.15910 | 37971 ft | 460 kts | 298° |
| 2026-04-10 14:37 | 59.21310 | -139.27391 | 37975 ft | 460 kts | 298° |
| 2026-04-10 14:37 | 59.23881 | -139.38742 | 37983 ft | 460 kts | 298° |
| 2026-04-10 14:38 | 59.26455 | -139.50176 | 37993 ft | 456 kts | 298° |
| 2026-04-10 14:38 | 59.28999 | -139.61503 | 37987 ft | 455 kts | 298° |
| 2026-04-10 14:39 | 59.31528 | -139.72861 | 37980 ft | 456 kts | 298° |
| 2026-04-10 14:39 | 59.33993 | -139.84315 | 37980 ft | 458 kts | 296° |
| 2026-04-10 14:40 | 59.36233 | -139.95978 | 38000 ft | 454 kts | 297° |
| 2026-04-10 14:40 | 59.38585 | -140.07464 | 37980 ft | 452 kts | 297° |
| 2026-04-10 14:41 | 59.40826 | -140.18945 | 37992 ft | 450 kts | 297° |
| 2026-04-10 14:41 | 59.43103 | -140.30393 | 37988 ft | 451 kts | 297° |
| 2026-04-10 14:42 | 59.45346 | -140.41894 | 37989 ft | 451 kts | 297° |
| 2026-04-10 14:42 | 59.47594 | -140.53394 | 37989 ft | 450 kts | 296° |
| 2026-04-10 14:43 | 59.49823 | -140.64920 | 37990 ft | 451 kts | 296° |
| 2026-04-10 14:43 | 59.52037 | -140.76411 | 38000 ft | 448 kts | 296° |
| 2026-04-10 14:44 | 59.54239 | -140.87910 | 38005 ft | 449 kts | 296° |
| 2026-04-10 14:44 | 59.56419 | -140.99360 | 38002 ft | 449 kts | 296° |
| 2026-04-10 14:45 | 59.58600 | -141.10889 | 38002 ft | 449 kts | 296° |
| 2026-04-10 14:45 | 59.60772 | -141.22433 | 38005 ft | 449 kts | 296° |
| 2026-04-10 14:46 | 59.62934 | -141.34003 | 37993 ft | 448 kts | 296° |
| 2026-04-10 14:46 | 59.65083 | -141.45558 | 37993 ft | 448 kts | 296° |
| 2026-04-10 14:47 | 59.67224 | -141.57145 | 37996 ft | 448 kts | 296° |
| 2026-04-10 14:47 | 59.69354 | -141.68748 | 37996 ft | 448 kts | 296° |
| 2026-04-10 14:48 | 59.71475 | -141.80366 | 37996 ft | 449 kts | 296° |
| 2026-04-10 14:48 | 59.73585 | -141.91997 | 37970 ft | 448 kts | 295° |
| 2026-04-10 14:49 | 59.75682 | -142.03631 | 38001 ft | 448 kts | 295° |
| 2026-04-10 14:49 | 59.77755 | -142.15202 | 38002 ft | 448 kts | 295° |
| 2026-04-10 14:50 | 59.79835 | -142.26878 | 38000 ft | 448 kts | 295° |
| 2026-04-10 14:50 | 59.81904 | -142.38572 | 37778 ft | 449 kts | 295° |
| 2026-04-10 14:50 | 59.82929 | -142.44405 | 37532 ft | 444 kts | 295° |
| 2026-04-10 14:51 | 59.83940 | -142.50172 | 37285 ft | 440 kts | 295° |
| 2026-04-10 14:51 | 59.84943 | -142.55884 | 37004 ft | 436 kts | 295° |
| 2026-04-10 14:51 | 59.85934 | -142.61551 | 36770 ft | 432 kts | 295° |
| 2026-04-10 14:51 | 59.86912 | -142.67187 | 36534 ft | 430 kts | 295° |
| 2026-04-10 14:52 | 59.87884 | -142.72793 | 36302 ft | 427 kts | 295° |
| 2026-04-10 14:52 | 59.88848 | -142.78365 | 36076 ft | 424 kts | 295° |
| 2026-04-10 14:52 | 59.89799 | -142.83883 | 36005 ft | 420 kts | 295° |
| 2026-04-10 14:53 | 59.91710 | -142.94977 | 36007 ft | 429 kts | 295° |
| 2026-04-10 14:53 | 59.93657 | -143.06413 | 36010 ft | 442 kts | 295° |
| 2026-04-10 14:54 | 59.95642 | -143.18123 | 35980 ft | 447 kts | 294° |
| 2026-04-10 14:54 | 59.97620 | -143.29877 | 36004 ft | 446 kts | 294° |
| 2026-04-10 14:55 | 59.99588 | -143.41633 | 36004 ft | 446 kts | 294° |
| 2026-04-10 14:55 | 60.01545 | -143.53409 | 36008 ft | 446 kts | 294° |
| 2026-04-10 14:56 | 60.03490 | -143.65184 | 36004 ft | 446 kts | 294° |
| 2026-04-10 14:56 | 60.05415 | -143.76919 | 36005 ft | 447 kts | 294° |
| 2026-04-10 14:57 | 60.07357 | -143.88836 | 36007 ft | 447 kts | 294° |
| 2026-04-10 14:57 | 60.09273 | -144.00660 | 36012 ft | 447 kts | 294° |
| 2026-04-10 14:58 | 60.11179 | -144.12517 | 36008 ft | 447 kts | 293° |
| 2026-04-10 14:58 | 60.13062 | -144.24303 | 36010 ft | 447 kts | 293° |
| 2026-04-10 14:59 | 60.14948 | -144.36190 | 36003 ft | 447 kts | 293° |
| 2026-04-10 14:59 | 60.16819 | -144.48064 | 36003 ft | 443 kts | 293° |
| 2026-04-10 15:00 | 60.18669 | -144.59880 | 36011 ft | 444 kts | 293° |
| 2026-04-10 15:00 | 60.20509 | -144.71716 | 36012 ft | 443 kts | 293° |
| 2026-04-10 15:01 | 60.22337 | -144.83554 | 36018 ft | 444 kts | 292° |
| 2026-04-10 15:01 | 60.24158 | -144.95433 | 36018 ft | 444 kts | 292° |
| 2026-04-10 15:02 | 60.25968 | -145.07317 | 36020 ft | 444 kts | 292° |
| 2026-04-10 15:02 | 60.27760 | -145.19176 | 36022 ft | 441 kts | 292° |
| 2026-04-10 15:03 | 60.29540 | -145.31019 | 36030 ft | 442 kts | 292° |
| 2026-04-10 15:03 | 60.31307 | -145.42877 | 36022 ft | 442 kts | 292° |
| 2026-04-10 15:04 | 60.33065 | -145.54751 | 36030 ft | 442 kts | 292° |
| 2026-04-10 15:04 | 60.34801 | -145.66557 | 36030 ft | 442 kts | 292° |
| 2026-04-10 15:05 | 60.37393 | -145.84357 | 36035 ft | 437 kts | 291° |
| 2026-04-10 15:05 | 60.39099 | -145.96159 | 36033 ft | 438 kts | 291° |
| 2026-04-10 15:06 | 60.40794 | -146.07982 | 36045 ft | 438 kts | 291° |
| 2026-04-10 15:06 | 60.42479 | -146.19831 | 36045 ft | 438 kts | 291° |
| 2026-04-10 15:07 | 60.44154 | -146.31675 | 36057 ft | 438 kts | 291° |
| 2026-04-10 15:07 | 60.45817 | -146.43540 | 36031 ft | 438 kts | 291° |
| 2026-04-10 15:08 | 60.47461 | -146.55329 | 35748 ft | 435 kts | 290° |
| 2026-04-10 15:08 | 60.48313 | -146.61186 | 35366 ft | 430 kts | 292° |
| 2026-04-10 15:08 | 60.49350 | -146.66813 | 34942 ft | 423 kts | 297° |
| 2026-04-10 15:09 | 60.50561 | -146.72199 | 34489 ft | 418 kts | 298° |
| 2026-04-10 15:09 | 60.51741 | -146.77568 | 34009 ft | 415 kts | 296° |
| 2026-04-10 15:09 | 60.52788 | -146.83016 | 33472 ft | 413 kts | 295° |
| 2026-04-10 15:09 | 60.53815 | -146.88448 | 32932 ft | 410 kts | 296° |
| 2026-04-10 15:10 | 60.54900 | -146.93780 | 32425 ft | 407 kts | 297° |
| 2026-04-10 15:10 | 60.55993 | -146.99061 | 31903 ft | 404 kts | 296° |
| 2026-04-10 15:10 | 60.57041 | -147.04353 | 31366 ft | 401 kts | 295° |
| 2026-04-10 15:10 | 60.58063 | -147.09615 | 30845 ft | 399 kts | 294° |
| 2026-04-10 15:11 | 60.59099 | -147.14837 | 30351 ft | 397 kts | 294° |
| 2026-04-10 15:11 | 60.60139 | -147.20032 | 29779 ft | 395 kts | 294° |
| 2026-04-10 15:11 | 60.61158 | -147.25203 | 29212 ft | 393 kts | 294° |
| 2026-04-10 15:11 | 60.62165 | -147.30362 | 28676 ft | 390 kts | 294° |
| 2026-04-10 15:12 | 60.63167 | -147.35474 | 28152 ft | 388 kts | 294° |
| 2026-04-10 15:12 | 60.64167 | -147.40569 | 27645 ft | 386 kts | 294° |
| 2026-04-10 15:12 | 60.65157 | -147.45645 | 27133 ft | 385 kts | 294° |
| 2026-04-10 15:12 | 60.66126 | -147.50635 | 26645 ft | 383 kts | 294° |
| 2026-04-10 15:13 | 60.67104 | -147.55673 | 26143 ft | 381 kts | 294° |
| 2026-04-10 15:13 | 60.68074 | -147.60686 | 25639 ft | 379 kts | 294° |
| 2026-04-10 15:13 | 60.69040 | -147.65683 | 25150 ft | 378 kts | 294° |
| 2026-04-10 15:13 | 60.69998 | -147.70662 | 24633 ft | 377 kts | 293° |
| 2026-04-10 15:14 | 60.70954 | -147.75644 | 24154 ft | 376 kts | 293° |
| 2026-04-10 15:14 | 60.71906 | -147.80607 | 23637 ft | 375 kts | 293° |
| 2026-04-10 15:14 | 60.72850 | -147.85546 | 23071 ft | 372 kts | 293° |
| 2026-04-10 15:14 | 60.73784 | -147.90445 | 22528 ft | 369 kts | 293° |
| 2026-04-10 15:15 | 60.74710 | -147.95311 | 22003 ft | 366 kts | 293° |
| 2026-04-10 15:15 | 60.75628 | -148.00153 | 21503 ft | 364 kts | 293° |
| 2026-04-10 15:15 | 60.76538 | -148.04958 | 21001 ft | 361 kts | 293° |
| 2026-04-10 15:15 | 60.77438 | -148.09729 | 20527 ft | 359 kts | 293° |
| 2026-04-10 15:16 | 60.78333 | -148.14482 | 20041 ft | 357 kts | 293° |
| 2026-04-10 15:16 | 60.79222 | -148.19210 | 19555 ft | 354 kts | 293° |
| 2026-04-10 15:16 | 60.80102 | -148.23908 | 19090 ft | 352 kts | 292° |
| 2026-04-10 15:16 | 60.80976 | -148.28581 | 18602 ft | 350 kts | 292° |
| 2026-04-10 15:17 | 60.81843 | -148.33226 | 18079 ft | 348 kts | 292° |
| 2026-04-10 15:17 | 60.82703 | -148.37844 | 17546 ft | 345 kts | 292° |
| 2026-04-10 15:17 | 60.83550 | -148.42417 | 17078 ft | 342 kts | 292° |
| 2026-04-10 15:17 | 60.84392 | -148.46971 | 16598 ft | 340 kts | 292° |
| 2026-04-10 15:18 | 60.85226 | -148.51485 | 16134 ft | 337 kts | 291° |
| 2026-04-10 15:18 | 60.86042 | -148.55901 | 15671 ft | 335 kts | 291° |
| 2026-04-10 15:18 | 60.86859 | -148.60359 | 15220 ft | 332 kts | 291° |
| 2026-04-10 15:18 | 60.87682 | -148.64784 | 14751 ft | 330 kts | 292° |
| 2026-04-10 15:19 | 60.88485 | -148.69179 | 14322 ft | 328 kts | 291° |
| 2026-04-10 15:19 | 60.89274 | -148.73549 | 13838 ft | 326 kts | 291° |
| 2026-04-10 15:19 | 60.90064 | -148.77889 | 13346 ft | 323 kts | 291° |
| 2026-04-10 15:19 | 60.90850 | -148.82197 | 12886 ft | 322 kts | 291° |
| 2026-04-10 15:20 | 60.91632 | -148.86499 | 12443 ft | 320 kts | 291° |
| 2026-04-10 15:20 | 60.92406 | -148.90785 | 11978 ft | 319 kts | 291° |
| 2026-04-10 15:20 | 60.93168 | -148.95051 | 11561 ft | 318 kts | 290° |
| 2026-04-10 15:20 | 60.93685 | -148.97938 | 11267 ft | 318 kts | 290° |
| 2026-04-10 15:21 | 60.94441 | -149.02196 | 10843 ft | 317 kts | 289° |
| 2026-04-10 15:21 | 60.95205 | -149.06437 | 10359 ft | 316 kts | 290° |
| 2026-04-10 15:21 | 60.95989 | -149.10585 | 9932 ft | 315 kts | 290° |
| 2026-04-10 15:21 | 60.96736 | -149.14798 | 9487 ft | 313 kts | 289° |
| 2026-04-10 15:22 | 60.97464 | -149.19006 | 9031 ft | 311 kts | 289° |
| 2026-04-10 15:22 | 60.98185 | -149.23204 | 8582 ft | 310 kts | 286° |
| 2026-04-10 15:22 | 60.98549 | -149.27528 | 8197 ft | 302 kts | 274° |
| 2026-04-10 15:22 | 60.98636 | -149.31814 | 7735 ft | 293 kts | 271° |
| 2026-04-10 15:23 | 60.98675 | -149.35829 | 7846 ft | 268 kts | 272° |
| 2026-04-10 15:23 | 60.98818 | -149.39526 | 7935 ft | 253 kts | 276° |
| 2026-04-10 15:23 | 60.99010 | -149.43114 | 8032 ft | 252 kts | 276° |
| 2026-04-10 15:23 | 60.99185 | -149.46722 | 8092 ft | 254 kts | 276° |
| 2026-04-10 15:24 | 60.99355 | -149.50336 | 8092 ft | 253 kts | 275° |
| 2026-04-10 15:24 | 60.99523 | -149.53886 | 8079 ft | 242 kts | 276° |
| 2026-04-10 15:24 | 60.99681 | -149.57231 | 8077 ft | 230 kts | 275° |
| 2026-04-10 15:24 | 60.99832 | -149.60492 | 8069 ft | 227 kts | 275° |
| 2026-04-10 15:25 | 60.99982 | -149.63721 | 8045 ft | 228 kts | 275° |
| 2026-04-10 15:25 | 61.00139 | -149.67061 | 7545 ft | 238 kts | 275° |
| 2026-04-10 15:25 | 61.00302 | -149.70501 | 7064 ft | 244 kts | 274° |
| 2026-04-10 15:25 | 61.00464 | -149.74013 | 6587 ft | 249 kts | 276° |
| 2026-04-10 15:26 | 61.00783 | -149.77500 | 6056 ft | 244 kts | 284° |
| 2026-04-10 15:26 | 61.01307 | -149.80779 | 5530 ft | 238 kts | 289° |
| 2026-04-10 15:26 | 61.01859 | -149.83918 | 5012 ft | 228 kts | 288° |
| 2026-04-10 15:26 | 61.02344 | -149.86985 | 4466 ft | 222 kts | 287° |
| 2026-04-10 15:27 | 61.02802 | -149.89978 | 3931 ft | 217 kts | 287° |
| 2026-04-10 15:27 | 61.03259 | -149.92911 | 3393 ft | 213 kts | 287° |
| 2026-04-10 15:27 | 61.03707 | -149.95765 | 2863 ft | 202 kts | 287° |
| 2026-04-10 15:27 | 61.04125 | -149.98436 | 2311 ft | 191 kts | 287° |
| 2026-04-10 15:28 | 61.04525 | -150.01005 | 1985 ft | 181 kts | 286° |
| 2026-04-10 15:28 | 61.04905 | -150.03452 | 1995 ft | 179 kts | 287° |
| 2026-04-10 15:28 | 61.05287 | -150.05918 | 1987 ft | 180 kts | 286° |
| 2026-04-10 15:28 | 61.05670 | -150.08386 | 1993 ft | 181 kts | 287° |
| 2026-04-10 15:29 | 61.06052 | -150.10854 | 1994 ft | 181 kts | 286° |
| 2026-04-10 15:29 | 61.06434 | -150.13324 | 1997 ft | 181 kts | 286° |
| 2026-04-10 15:29 | 61.06816 | -150.15802 | 1998 ft | 181 kts | 286° |
| 2026-04-10 15:29 | 61.07196 | -150.18270 | 1998 ft | 181 kts | 286° |
| 2026-04-10 15:30 | 61.07578 | -150.20747 | 1994 ft | 181 kts | 286° |
| 2026-04-10 15:30 | 61.07969 | -150.23211 | 1990 ft | 181 kts | 290° |
| 2026-04-10 15:30 | 61.08605 | -150.25376 | 1943 ft | 170 kts | 311° |
| 2026-04-10 15:30 | 61.09561 | -150.26832 | 1885 ft | 178 kts | 335° |
| 2026-04-10 15:31 | 61.10748 | -150.27512 | 1992 ft | 177 kts | 349° |
| 2026-04-10 15:31 | 61.11985 | -150.27816 | 1987 ft | 180 kts | 356° |
| 2026-04-10 15:31 | 61.13237 | -150.27830 | 2016 ft | 181 kts | 2° |
| 2026-04-10 15:31 | 61.14495 | -150.27522 | 2036 ft | 184 kts | 12° |
| 2026-04-10 15:32 | 61.15639 | -150.26619 | 2174 ft | 161 kts | 33° |
| 2026-04-10 15:32 | 61.16358 | -150.24913 | 2096 ft | 164 kts | 64° |
| 2026-04-10 15:32 | 61.16651 | -150.22669 | 1950 ft | 162 kts | 84° |
| 2026-04-10 15:32 | 61.16715 | -150.20361 | 1838 ft | 160 kts | 90° |
| 2026-04-10 15:33 | 61.16734 | -150.18095 | 1763 ft | 152 kts | 91° |
| 2026-04-10 15:33 | 61.16743 | -150.15923 | 1387 ft | 151 kts | 91° |
| 2026-04-10 15:33 | 61.16763 | -150.13787 | 1027 ft | 150 kts | 90° |
| 2026-04-10 15:33 | 61.16775 | -150.11602 | 801 ft | 147 kts | 92° |
| 2026-04-10 15:34 | 61.16783 | -150.09511 | 637 ft | 144 kts | 91° |
| 2026-04-10 15:34 | 61.16777 | -150.07472 | 484 ft | 144 kts | 91° |
| 2026-04-10 15:34 | 61.16782 | -150.05407 | 298 ft | 144 kts | 91° |
| 2026-04-10 15:34 | 61.16783 | -150.03382 | 129 ft | 131 kts | 90° |
| 2026-04-10 15:35 | 61.16783 | -150.01871 | 124 ft | 70 kts | 91° |
| 2026-04-10 15:35 | 61.16784 | -150.01008 | 124 ft | 59 kts | 90° |
| 2026-04-10 15:35 | 61.16785 | -150.00105 | 122 ft | 62 kts | 90° |
| 2026-04-10 15:35 | 61.16785 | -149.99265 | 125 ft | 55 kts | 89° |
| 2026-04-10 15:36 | 61.16796 | -149.98636 | 122 ft | 39 kts | 83° |
| 2026-04-10 15:36 | 61.16853 | -149.98505 | 123 ft | 14 kts | 343° |
| 2026-04-10 15:36 | 61.16968 | -149.98592 | 120 ft | 19 kts | 339° |
| 2026-04-10 15:36 | 61.17109 | -149.98702 | 120 ft | 24 kts | 339° |
| 2026-04-10 15:37 | 61.17229 | -149.98778 | 120 ft | 15 kts | 347° |
| 2026-04-10 15:37 | 61.17289 | -149.98743 | 121 ft | 0 kts | 45° |
| 2026-04-10 15:37 | 61.17312 | -149.98707 | 120 ft | 10 kts | 36° |
| 2026-04-10 15:37 | 61.17337 | -149.98584 | 120 ft | 11 kts | 121° |
| 2026-04-10 15:38 | 61.17308 | -149.98519 | 123 ft | 0 kts | 136° |